createdAt,value
2022-08-26T00:01:56.244Z,26.30
2022-08-26T00:04:24.606Z,25.10
2022-08-26T00:06:54.485Z,26.80
2022-08-26T00:09:22.905Z,29.10
2022-08-26T00:11:55.553Z,25.10
2022-08-26T00:14:31.033Z,27.20
2022-08-26T00:16:59.066Z,28.00
2022-08-26T00:19:29.552Z,26.50
2022-08-26T00:22:00.017Z,25.30
2022-08-26T00:24:28.263Z,27.20
2022-08-26T00:26:55.561Z,25.40
2022-08-26T00:29:22.736Z,27.80
2022-08-26T00:31:50.719Z,25.30
2022-08-26T00:34:19.639Z,24.40
2022-08-26T00:36:47.698Z,26.30
2022-08-26T00:39:16.233Z,25.40
2022-08-26T00:41:44.388Z,23.30
2022-08-26T00:44:11.668Z,24.30
2022-08-26T00:46:58.947Z,24.10
2022-08-26T00:49:42.496Z,23.10
2022-08-26T00:52:18.037Z,36.80
2022-08-26T00:54:53.163Z,44.80
2022-08-26T00:57:22.666Z,28.90
2022-08-26T01:00:02.239Z,33.30
2022-08-26T01:02:29.627Z,23.70
2022-08-26T01:05:03.440Z,23.00
2022-08-26T01:07:32.694Z,20.90
2022-08-26T01:10:08.988Z,26.00
2022-08-26T01:12:42.166Z,21.60
2022-08-26T01:15:15.028Z,21.90
2022-08-26T01:17:42.496Z,21.80
2022-08-26T01:20:37.617Z,24.70
2022-08-26T01:23:10.556Z,23.50
2022-08-26T01:25:40.899Z,23.90
2022-08-26T01:28:18.955Z,25.30
2022-08-26T01:30:47.723Z,25.70
2022-08-26T01:33:46.942Z,22.40
2022-08-26T01:36:29.055Z,22.20
2022-08-26T01:38:57.149Z,28.40
2022-08-26T01:41:36.292Z,22.90
2022-08-26T01:44:09.787Z,19.60
2022-08-26T01:46:40.621Z,25.50
2022-08-26T01:49:12.454Z,24.80
2022-08-26T01:51:43.254Z,24.30
2022-08-26T01:54:13.735Z,23.00
2022-08-26T01:56:41.370Z,24.70
2022-08-26T01:59:12.258Z,28.80
2022-08-26T02:01:39.588Z,26.50
2022-08-26T02:04:20.408Z,25.80
2022-08-26T02:06:48.950Z,25.70
2022-08-26T02:09:18.392Z,30.10
2022-08-26T02:11:51.151Z,25.90
2022-08-26T02:14:28.975Z,28.50
2022-08-26T02:17:12.517Z,30.70
2022-08-26T02:19:44.717Z,28.80
2022-08-26T02:22:20.824Z,28.60
2022-08-26T02:24:52.285Z,26.60
2022-08-26T02:27:23.829Z,26.30
2022-08-26T02:30:19.313Z,24.40
2022-08-26T02:32:49.582Z,27.50
2022-08-26T02:35:20.356Z,30.60
2022-08-26T02:37:49.352Z,28.70
2022-08-26T02:40:23.346Z,32.00
2022-08-26T02:42:53.089Z,28.10
2022-08-26T02:45:25.955Z,31.40
2022-08-26T02:47:53.291Z,29.20
2022-08-26T02:50:26.506Z,27.70
2022-08-26T02:53:01.497Z,29.10
2022-08-26T02:55:31.973Z,26.80
2022-08-26T02:58:00.800Z,30.60
2022-08-26T03:00:28.993Z,28.10
2022-08-26T03:02:57.730Z,29.10
2022-08-26T03:05:25.400Z,29.10
2022-08-26T03:07:52.438Z,29.00
2022-08-26T03:10:20.934Z,29.40
2022-08-26T03:12:48.165Z,30.80
2022-08-26T03:15:18.103Z,30.30
2022-08-26T03:17:47.674Z,30.40
2022-08-26T03:20:17.442Z,30.80
2022-08-26T03:22:44.858Z,27.30
2022-08-26T03:25:16.042Z,26.50
2022-08-26T03:27:43.245Z,30.00
2022-08-26T03:30:32.610Z,29.80
2022-08-26T03:33:01.679Z,33.10
2022-08-26T03:35:31.222Z,28.90
2022-08-26T03:37:59.791Z,30.00
2022-08-26T03:40:30.772Z,37.00
2022-08-26T03:42:58.041Z,32.30
2022-08-26T03:45:27.208Z,31.70
2022-08-26T03:48:02.830Z,30.80
2022-08-26T03:50:34.271Z,31.00
2022-08-26T03:53:12.903Z,34.80
2022-08-26T03:58:10.442Z,32.60
2022-08-26T04:00:38.893Z,33.00
2022-08-26T04:03:06.591Z,33.30
2022-08-26T04:05:37.751Z,35.00
2022-08-26T04:08:08.312Z,30.30
2022-08-26T04:10:37.890Z,35.20
2022-08-26T04:13:05.382Z,39.20
2022-08-26T04:15:32.229Z,36.10
2022-08-26T04:18:00.789Z,31.40
2022-08-26T04:20:27.959Z,33.70
2022-08-26T04:22:55.054Z,31.70
2022-08-26T04:25:25.655Z,31.60
2022-08-26T04:27:54.489Z,34.80
2022-08-26T04:30:21.505Z,30.60
2022-08-26T04:32:49.365Z,32.30
2022-08-26T04:35:17.282Z,33.00
2022-08-26T04:37:44.363Z,32.20
2022-08-26T04:40:11.686Z,33.90
2022-08-26T04:42:38.705Z,32.80
2022-08-26T04:45:09.978Z,34.30
2022-08-26T04:47:38.347Z,37.90
2022-08-26T04:50:06.668Z,36.40
2022-08-26T04:52:36.200Z,32.50
2022-08-26T04:55:06.505Z,35.60
2022-08-26T04:57:33.720Z,35.00
2022-08-26T05:00:01.507Z,33.10
2022-08-26T05:02:36.049Z,34.00
2022-08-26T05:05:06.687Z,31.90
2022-08-26T05:07:34.770Z,35.90
2022-08-26T05:10:04.031Z,34.20
2022-08-26T05:12:35.899Z,37.10
2022-08-26T05:15:09.823Z,36.70
2022-08-26T05:17:37.701Z,40.90
2022-08-26T05:20:06.232Z,39.10
2022-08-26T05:22:34.567Z,37.20
2022-08-26T05:25:01.813Z,36.70
2022-08-26T05:27:30.399Z,38.10
2022-08-26T05:29:57.592Z,36.30
2022-08-26T05:32:25.067Z,41.00
2022-08-26T05:34:58.589Z,39.00
2022-08-26T05:37:26.003Z,40.80
2022-08-26T05:39:53.052Z,38.10
2022-08-26T05:42:20.046Z,36.70
2022-08-26T05:44:56.366Z,39.90
2022-08-26T05:47:24.015Z,41.90
2022-08-26T05:49:51.269Z,43.00
2022-08-26T05:52:19.831Z,39.60
2022-08-26T05:54:47.168Z,46.90
2022-08-26T05:57:15.371Z,42.10
2022-08-26T05:59:42.209Z,36.20
2022-08-26T06:03:20.711Z,40.00
2022-08-26T06:06:35.489Z,45.30
2022-08-26T06:09:21.022Z,87.00
2022-08-26T06:11:58.971Z,53.40
2022-08-26T06:14:30.258Z,44.20
2022-08-26T06:16:58.644Z,44.30
2022-08-26T06:19:26.048Z,40.30
2022-08-26T06:22:23.908Z,42.10
2022-08-26T06:25:10.317Z,62.60
2022-08-26T06:27:38.482Z,48.60
2022-08-26T06:30:06.815Z,47.90
2022-08-26T06:32:57.783Z,39.80
2022-08-26T06:35:26.789Z,51.80
2022-08-26T06:37:53.789Z,64.10
2022-08-26T06:40:23.203Z,48.80
2022-08-26T06:42:55.580Z,49.10
2022-08-26T06:45:23.662Z,43.30
2022-08-26T06:47:52.191Z,37.20
2022-08-26T06:50:20.633Z,37.00
2022-08-26T06:52:48.049Z,36.20
2022-08-26T06:55:15.447Z,34.80
2022-08-26T06:57:43.015Z,35.70
2022-08-26T07:00:11.540Z,36.40
2022-08-26T07:02:39.963Z,35.30
2022-08-26T07:05:07.450Z,35.40
2022-08-26T07:07:53.225Z,30.40
2022-08-26T07:10:49.136Z,34.40
2022-08-26T07:13:34.150Z,33.90
2022-08-26T07:16:07.666Z,35.70
2022-08-26T07:18:45.025Z,36.40
2022-08-26T07:21:19.806Z,36.80
2022-08-26T07:23:50.105Z,33.60
2022-08-26T07:26:26.264Z,35.50
2022-08-26T07:29:00.035Z,32.10
2022-08-26T07:31:47.449Z,63.50
2022-08-26T07:34:26.550Z,52.00
2022-08-26T07:36:59.847Z,51.40
2022-08-26T07:39:34.219Z,33.50
2022-08-26T07:42:13.621Z,34.80
2022-08-26T07:44:43.963Z,37.50
2022-08-26T07:47:25.468Z,33.70
2022-08-26T07:49:56.824Z,30.70
2022-08-26T07:52:44.784Z,32.90
2022-08-26T07:56:03.580Z,32.10
2022-08-26T07:58:45.748Z,34.30
2022-08-26T08:01:33.105Z,29.90
2022-08-26T08:04:05.810Z,32.20
2022-08-26T08:07:00.918Z,34.50
2022-08-26T08:09:37.387Z,38.60
2022-08-26T08:12:21.421Z,32.90
2022-08-26T08:15:09.119Z,36.70
2022-08-26T08:17:39.909Z,32.50
2022-08-26T08:20:14.785Z,33.30
2022-08-26T08:23:04.153Z,33.70
2022-08-26T08:25:43.897Z,34.20
2022-08-26T08:28:17.809Z,31.90
2022-08-26T08:30:50.493Z,30.80
2022-08-26T08:33:23.880Z,32.30
2022-08-26T08:35:57.068Z,34.40
2022-08-26T08:38:25.103Z,30.60
2022-08-26T08:40:59.049Z,31.90
2022-08-26T08:43:27.232Z,29.80
2022-08-26T08:46:16.885Z,28.80
2022-08-26T08:49:07.923Z,26.20
2022-08-26T08:52:12.519Z,28.80
2022-08-26T08:54:40.011Z,28.70
2022-08-26T08:57:28.626Z,26.70
2022-08-26T09:00:11.155Z,30.60
2022-08-26T09:02:53.103Z,28.10
2022-08-26T09:05:39.878Z,30.30
2022-08-26T09:08:19.723Z,30.80
2022-08-26T09:10:53.989Z,34.60
2022-08-26T09:13:27.375Z,24.60
2022-08-26T09:16:10.066Z,25.30
2022-08-26T09:19:14.382Z,23.70
2022-08-26T09:22:06.999Z,25.40
2022-08-26T09:24:41.756Z,25.50
2022-08-26T09:27:44.001Z,23.70
2022-08-26T09:30:23.163Z,37.60
2022-08-26T09:33:10.365Z,28.60
2022-08-26T09:35:46.979Z,22.70
2022-08-26T09:38:28.028Z,23.00
2022-08-26T09:41:05.272Z,27.50
2022-08-26T09:43:41.453Z,27.30
2022-08-26T09:46:36.335Z,27.80
2022-08-26T09:49:46.424Z,25.40
2022-08-26T09:52:35.326Z,29.90
2022-08-26T09:55:26.888Z,27.30
2022-08-26T09:57:55.508Z,34.80
2022-08-26T10:00:27.421Z,33.10
2022-08-26T10:03:08.142Z,34.30
2022-08-26T10:08:23.152Z,26.90
2022-08-26T10:10:53.104Z,24.30
2022-08-26T10:13:29.542Z,25.10
2022-08-26T10:16:08.179Z,23.20
2022-08-26T10:19:05.839Z,23.50
2022-08-26T10:21:59.904Z,22.20
2022-08-26T10:24:37.451Z,24.30
2022-08-26T10:27:27.558Z,22.30
2022-08-26T10:30:18.362Z,20.70
2022-08-26T10:33:09.737Z,70.20
2022-08-26T10:36:00.576Z,47.90
2022-08-26T10:38:51.020Z,22.90
2022-08-26T10:41:41.400Z,22.40
2022-08-26T10:44:14.841Z,22.00
2022-08-26T10:47:06.273Z,65.80
2022-08-26T10:49:42.412Z,32.70
2022-08-26T10:52:48.607Z,29.20
2022-08-26T10:55:44.130Z,25.10
2022-08-26T10:58:44.764Z,52.20
2022-08-26T11:01:41.269Z,42.80
2022-08-26T11:05:10.772Z,48.60
2022-08-26T11:07:45.903Z,22.80
2022-08-26T11:10:16.164Z,22.00
2022-08-26T11:12:44.899Z,20.50
2022-08-26T11:15:33.540Z,17.70
2022-08-26T11:18:08.424Z,21.90
2022-08-26T11:20:42.458Z,19.70
2022-08-26T11:23:21.970Z,19.20
2022-08-26T11:26:01.133Z,20.50
2022-08-26T11:28:36.012Z,18.50
2022-08-26T11:31:07.124Z,20.60
2022-08-26T11:33:51.007Z,18.70
2022-08-26T11:36:37.211Z,15.90
2022-08-26T11:39:19.903Z,20.50
2022-08-26T11:41:52.868Z,19.30
2022-08-26T11:44:28.377Z,17.10
2022-08-26T11:47:02.776Z,19.20
2022-08-26T11:49:32.463Z,19.90
2022-08-26T11:52:21.947Z,19.20
2022-08-26T11:55:16.243Z,17.60
2022-08-26T11:57:51.064Z,18.50
2022-08-26T12:00:27.048Z,16.20
2022-08-26T12:02:55.147Z,19.40
2022-08-26T12:05:29.572Z,23.20
2022-08-26T12:08:08.731Z,30.90
2022-08-26T12:10:36.740Z,48.80
2022-08-26T12:13:05.844Z,20.60
2022-08-26T12:15:35.300Z,19.60
2022-08-26T12:18:28.977Z,19.30
2022-08-26T12:21:10.504Z,15.60
2022-08-26T12:23:46.894Z,19.50
2022-08-26T12:26:37.598Z,15.50
2022-08-26T12:29:09.429Z,17.30
2022-08-26T12:31:47.429Z,15.70
2022-08-26T12:34:18.059Z,15.30
2022-08-26T12:36:53.625Z,17.00
2022-08-26T12:39:36.608Z,16.80
2022-08-26T12:42:21.295Z,16.90
2022-08-26T12:45:06.395Z,17.20
2022-08-26T12:47:44.009Z,18.60
2022-08-26T12:50:32.810Z,17.20
2022-08-26T12:53:05.201Z,16.90
2022-08-26T12:55:42.470Z,21.40
2022-08-26T12:58:21.152Z,19.20
2022-08-26T13:01:04.644Z,19.90
2022-08-26T13:03:44.368Z,19.60
2022-08-26T13:06:33.718Z,20.30
2022-08-26T13:09:24.730Z,17.80
2022-08-26T13:12:07.975Z,17.20
2022-08-26T13:14:54.599Z,16.50
2022-08-26T13:17:37.726Z,20.90
2022-08-26T13:20:12.989Z,18.10
2022-08-26T13:22:44.800Z,18.20
2022-08-26T13:25:30.100Z,20.20
2022-08-26T13:28:08.000Z,17.20
2022-08-26T13:30:51.433Z,18.20
2022-08-26T13:33:28.466Z,15.60
2022-08-26T13:36:12.043Z,17.60
2022-08-26T13:38:52.085Z,14.30
2022-08-26T13:41:28.927Z,15.80
2022-08-26T13:44:06.542Z,18.60
2022-08-26T13:46:43.018Z,18.60
2022-08-26T13:49:19.601Z,16.10
2022-08-26T13:51:59.025Z,15.20
2022-08-26T13:54:35.957Z,14.50
2022-08-26T13:57:16.012Z,16.00
2022-08-26T13:59:48.500Z,16.90
2022-08-26T14:02:24.658Z,18.90
2022-08-26T14:04:58.202Z,15.60
2022-08-26T14:07:33.133Z,16.60
2022-08-26T14:10:04.383Z,15.40
2022-08-26T14:12:44.660Z,18.50
2022-08-26T14:15:27.505Z,16.40
2022-08-26T14:18:15.636Z,16.50
2022-08-26T14:21:02.223Z,17.00
2022-08-26T14:23:38.591Z,16.90
2022-08-26T14:26:08.072Z,19.40
2022-08-26T14:28:38.601Z,24.60
2022-08-26T14:31:16.716Z,29.20
2022-08-26T14:34:30.040Z,17.30
2022-08-26T14:37:07.375Z,14.70
2022-08-26T14:39:50.627Z,17.00
2022-08-26T14:42:27.705Z,17.30
2022-08-26T14:45:28.016Z,12.50
2022-08-26T14:48:20.281Z,14.00
2022-08-26T14:51:11.115Z,14.60
2022-08-26T14:54:17.472Z,12.70
2022-08-26T14:56:53.706Z,14.10
2022-08-26T14:59:35.578Z,11.80
2022-08-26T15:02:22.225Z,12.30
2022-08-26T15:05:15.757Z,12.50
2022-08-26T15:07:50.746Z,12.50
2022-08-26T15:13:00.040Z,12.70
2022-08-26T15:16:02.827Z,15.60
2022-08-26T15:18:37.301Z,13.90
2022-08-26T15:21:11.668Z,14.60
2022-08-26T15:23:41.712Z,15.40
2022-08-26T15:26:29.514Z,15.90
2022-08-26T15:28:59.860Z,14.40
2022-08-26T15:31:36.243Z,13.30
2022-08-26T15:34:12.096Z,14.70
2022-08-26T15:36:45.892Z,13.70
2022-08-26T15:39:21.504Z,12.40
2022-08-26T15:42:01.443Z,13.60
2022-08-26T15:44:46.863Z,17.40
2022-08-26T15:47:55.923Z,15.10
2022-08-26T15:50:22.241Z,15.50
2022-08-26T15:52:53.367Z,12.30
2022-08-26T15:55:23.008Z,13.60
2022-08-26T15:57:53.980Z,13.80
2022-08-26T16:00:22.514Z,14.60
2022-08-26T16:02:54.794Z,13.20
2022-08-26T16:05:53.423Z,11.10
2022-08-26T16:08:39.031Z,20.30
2022-08-26T16:11:13.050Z,74.10
2022-08-26T16:13:51.101Z,14.60
2022-08-26T16:16:26.821Z,14.50
2022-08-26T16:19:09.213Z,15.40
2022-08-26T16:21:41.840Z,16.20
2022-08-26T16:24:33.866Z,14.20
2022-08-26T16:27:08.159Z,13.20
2022-08-26T16:29:45.407Z,14.60
2022-08-26T16:32:12.201Z,15.50
2022-08-26T16:34:46.928Z,16.10
2022-08-26T16:37:23.049Z,13.50
2022-08-26T16:40:22.475Z,133.10
2022-08-26T16:42:55.204Z,177.00
2022-08-26T16:45:27.179Z,31.90
2022-08-26T16:48:08.362Z,17.20
2022-08-26T16:50:41.852Z,16.40
2022-08-26T16:53:21.805Z,15.40
2022-08-26T16:55:51.600Z,17.30
2022-08-26T16:58:21.987Z,16.80
2022-08-26T17:00:49.245Z,16.70
2022-08-26T17:03:25.023Z,18.50
2022-08-26T17:05:52.106Z,17.30
2022-08-26T17:08:27.461Z,15.80
2022-08-26T17:11:00.629Z,15.90
2022-08-26T17:13:35.048Z,16.40
2022-08-26T17:16:06.906Z,14.60
2022-08-26T17:18:34.586Z,14.30
2022-08-26T17:21:11.411Z,15.80
2022-08-26T17:23:40.999Z,17.70
2022-08-26T17:26:08.779Z,14.60
2022-08-26T17:28:36.089Z,14.30
2022-08-26T17:31:05.082Z,15.30
2022-08-26T17:33:46.697Z,18.40
2022-08-26T17:36:20.123Z,16.70
2022-08-26T17:41:16.903Z,17.10
2022-08-26T17:43:44.157Z,16.50
2022-08-26T17:46:17.142Z,15.00
2022-08-26T17:48:47.941Z,15.80
2022-08-26T17:51:18.692Z,16.70
2022-08-26T17:53:47.921Z,17.40
2022-08-26T17:56:35.422Z,18.10
2022-08-26T17:59:37.066Z,31.40
2022-08-26T18:02:05.882Z,24.20
2022-08-26T18:04:43.744Z,17.60
2022-08-26T18:07:15.322Z,34.60
2022-08-26T18:10:00.900Z,19.50
2022-08-26T18:12:28.803Z,14.90
2022-08-26T18:15:04.875Z,16.10
2022-08-26T18:17:55.743Z,15.10
2022-08-26T18:20:34.045Z,18.40
2022-08-26T18:23:01.213Z,16.60
2022-08-26T18:25:38.702Z,18.70
2022-08-26T18:28:09.408Z,17.20
2022-08-26T18:30:36.841Z,16.30
2022-08-26T18:33:04.060Z,17.00
2022-08-26T18:35:31.965Z,16.20
2022-08-26T18:38:01.413Z,17.90
2022-08-26T18:40:43.609Z,16.40
2022-08-26T18:43:45.165Z,14.00
2022-08-26T18:46:13.485Z,18.40
2022-08-26T18:48:50.842Z,25.50
2022-08-26T18:51:26.384Z,17.10
2022-08-26T18:53:56.059Z,17.10
2022-08-26T18:56:23.269Z,16.60
2022-08-26T18:58:54.188Z,18.40
2022-08-26T19:03:56.160Z,16.30
2022-08-26T19:06:25.190Z,16.40
2022-08-26T19:08:53.337Z,15.70
2022-08-26T19:11:31.642Z,15.60
2022-08-26T19:14:08.672Z,15.80
2022-08-26T19:16:39.327Z,17.10
2022-08-26T19:19:06.970Z,15.10
2022-08-26T19:21:38.062Z,18.50
2022-08-26T19:24:15.275Z,14.90
2022-08-26T19:26:49.051Z,21.30
2022-08-26T19:29:22.534Z,17.30
2022-08-26T19:31:53.090Z,27.10
2022-08-26T19:34:21.053Z,28.80
2022-08-26T19:36:49.284Z,16.10
2022-08-26T19:39:16.746Z,15.20
2022-08-26T19:41:44.022Z,16.10
2022-08-26T19:44:34.698Z,15.50
2022-08-26T19:47:03.295Z,16.30
2022-08-26T19:49:31.484Z,17.50
2022-08-26T19:51:59.179Z,16.80
2022-08-26T19:54:26.717Z,17.10
2022-08-26T19:56:54.208Z,17.90
2022-08-26T19:59:23.935Z,16.60
2022-08-26T20:02:00.617Z,15.60
2022-08-26T20:04:31.492Z,17.50
2022-08-26T20:07:20.508Z,17.80
2022-08-26T20:09:48.901Z,18.30
2022-08-26T20:12:19.003Z,15.90
2022-08-26T20:14:53.620Z,17.90
2022-08-26T20:17:21.715Z,16.90
2022-08-26T20:20:26.922Z,16.10
2022-08-26T20:23:04.848Z,14.80
2022-08-26T20:25:33.980Z,19.60
2022-08-26T20:28:04.952Z,15.50
2022-08-26T20:30:35.000Z,16.40
2022-08-26T20:33:02.393Z,14.60
2022-08-26T20:35:29.620Z,16.10
2022-08-26T20:38:00.135Z,33.50
2022-08-26T20:40:50.398Z,25.50
2022-08-26T20:43:26.781Z,17.10
2022-08-26T20:45:54.075Z,16.90
2022-08-26T20:48:24.363Z,15.00
2022-08-26T20:51:07.659Z,17.10
2022-08-26T20:53:35.426Z,15.60
2022-08-26T20:56:24.597Z,19.50
2022-08-26T20:59:02.683Z,14.80
2022-08-26T21:01:34.238Z,16.20
2022-08-26T21:04:08.226Z,15.90
2022-08-26T21:06:36.206Z,13.90
2022-08-26T21:09:14.701Z,16.00
2022-08-26T21:11:52.084Z,14.80
2022-08-26T21:14:20.271Z,17.30
2022-08-26T21:16:48.071Z,15.60
2022-08-26T21:19:18.034Z,14.70
2022-08-26T21:21:56.381Z,17.00
2022-08-26T21:24:26.723Z,17.10
2022-08-26T21:26:56.988Z,16.00
2022-08-26T21:29:34.575Z,39.40
2022-08-26T21:32:08.153Z,55.00
2022-08-26T21:35:26.269Z,24.40
2022-08-26T21:38:36.036Z,18.10
2022-08-26T21:42:20.786Z,16.50
2022-08-26T21:45:25.805Z,18.90
2022-08-26T21:48:39.690Z,19.10
2022-08-26T21:56:02.215Z,18.90
2022-08-26T22:01:51.802Z,20.40
2022-08-26T22:05:11.200Z,48.70
2022-08-26T22:07:49.687Z,29.10
2022-08-26T22:10:59.890Z,18.80
2022-08-26T22:17:00.083Z,18.20
2022-08-26T22:20:33.711Z,17.20
2022-08-26T22:23:08.196Z,17.30
2022-08-26T22:25:44.279Z,18.60
2022-08-26T22:28:16.677Z,19.40
2022-08-26T22:30:45.390Z,19.40
2022-08-26T22:33:27.342Z,19.50
2022-08-26T22:36:14.316Z,20.60
2022-08-26T22:38:51.388Z,19.60
2022-08-26T22:41:20.137Z,20.80
2022-08-26T22:43:47.983Z,20.00
2022-08-26T22:46:38.535Z,19.40
2022-08-26T22:49:24.603Z,21.00
2022-08-26T22:52:30.473Z,18.70
2022-08-26T22:55:18.877Z,17.60
2022-08-26T22:57:59.162Z,19.00
2022-08-26T23:00:32.296Z,19.00
2022-08-26T23:03:37.406Z,18.10
2022-08-26T23:06:24.907Z,17.90
2022-08-26T23:09:12.899Z,17.80
2022-08-26T23:11:50.254Z,17.70
2022-08-26T23:14:39.538Z,14.90
2022-08-26T23:17:14.124Z,16.40
2022-08-26T23:19:45.512Z,23.60
2022-08-26T23:22:30.998Z,56.00
2022-08-26T23:25:12.647Z,29.30
2022-08-26T23:27:46.147Z,21.80
2022-08-26T23:30:26.166Z,17.90
2022-08-26T23:32:54.337Z,18.60
2022-08-26T23:35:24.514Z,17.50
2022-08-26T23:37:54.500Z,16.30
2022-08-26T23:40:36.410Z,18.90
2022-08-26T23:43:30.228Z,16.20
2022-08-26T23:46:03.354Z,18.80
2022-08-26T23:48:43.703Z,19.50
2022-08-26T23:51:31.531Z,20.60
2022-08-26T23:53:59.065Z,17.50
2022-08-26T23:56:27.266Z,20.70
2022-08-26T23:58:57.937Z,16.90
